Time;durP1;ratioP1;P1;durP2;ratioP2;P2;SDS_P1;SDS_P2;PMS_P1;PMS_P2;Temp;Humidity;BMP_temperature;BMP_pressure;BME280_temperature;BME280_humidity;BME280_pressure;Samples;Min_cycle;Max_cycle;Signal;HPM_P1;HPM_P2
2023/09/17 00:02:04;;;;;;;5.43;4.87;;;;;;;;;;5101881;28;20260;-80
2023/09/17 00:04:31;;;;;;;5.10;4.70;;;;;;;;;;5101181;28;20228;-80
2023/09/17 00:06:58;;;;;;;6.03;4.80;;;;;;;;;;5106972;28;20204;-80
2023/09/17 00:09:25;;;;;;;5.60;5.00;;;;;;;;;;5094218;28;20590;-79
2023/09/17 00:11:51;;;;;;;5.50;5.00;;;;;;;;;;5094223;28;20231;-80
2023/09/17 00:14:18;;;;;;;5.73;4.83;;;;;;;;;;5095219;28;20219;-80
2023/09/17 00:16:46;;;;;;;5.30;4.83;;;;;;;;;;5114827;28;20199;-80
2023/09/17 00:19:14;;;;;;;5.00;4.60;;;;;;;;;;5114452;28;20207;-80
2023/09/17 00:21:41;;;;;;;5.27;4.83;;;;;;;;;;5105212;28;20232;-80
2023/09/17 00:24:08;;;;;;;12.13;7.30;;;;;;;;;;5093944;28;20670;-80
2023/09/17 00:26:35;;;;;;;4.63;4.23;;;;;;;;;;5094210;28;20201;-80
2023/09/17 00:29:02;;;;;;;4.87;4.40;;;;;;;;;;5109907;28;20259;-80
2023/09/17 00:31:29;;;;;;;5.47;4.97;;;;;;;;;;5113778;28;20677;-80
2023/09/17 00:33:56;;;;;;;9.83;5.30;;;;;;;;;;5111727;28;20203;-79
2023/09/17 00:36:24;;;;;;;5.10;4.07;;;;;;;;;;5093606;28;20192;-79
2023/09/17 00:38:51;;;;;;;6.90;4.37;;;;;;;;;;5093655;28;20196;-80
2023/09/17 00:41:17;;;;;;;5.07;4.57;;;;;;;;;;5093278;28;20220;-80
2023/09/17 00:43:44;;;;;;;6.87;4.60;;;;;;;;;;5094041;28;20196;-80
2023/09/17 00:46:13;;;;;;;4.37;4.00;;;;;;;;;;5093854;28;20204;-79
2023/09/17 00:48:40;;;;;;;5.20;4.80;;;;;;;;;;5111353;28;20192;-80
2023/09/17 00:51:07;;;;;;;6.07;4.73;;;;;;;;;;5102855;28;20261;-79
2023/09/17 00:53:35;;;;;;;4.77;4.37;;;;;;;;;;5097301;28;20192;-80
2023/09/17 00:56:02;;;;;;;5.43;4.93;;;;;;;;;;5102370;28;20265;-80
2023/09/17 00:58:31;;;;;;;5.27;4.43;;;;;;;;;;5098074;28;20204;-79
2023/09/17 01:00:59;;;;;;;5.33;4.93;;;;;;;;;;5101631;28;20231;-79
2023/09/17 01:03:27;;;;;;;6.50;5.00;;;;;;;;;;5093398;28;20200;-80
2023/09/17 01:05:54;;;;;;;5.57;5.07;;;;;;;;;;5093569;28;20227;-80
2023/09/17 01:08:22;;;;;;;5.30;4.80;;;;;;;;;;5093104;28;20196;-80
2023/09/17 01:10:51;;;;;;;5.50;5.07;;;;;;;;;;5092228;28;20252;-79
2023/09/17 01:13:17;;;;;;;7.03;5.30;;;;;;;;;;5092749;28;20203;-80
2023/09/17 01:15:44;;;;;;;5.57;5.10;;;;;;;;;;5093526;28;20204;-80
2023/09/17 01:18:11;;;;;;;7.43;5.30;;;;;;;;;;5105962;28;20204;-80
2023/09/17 01:20:44;;;;;;;6.03;5.53;;;;;;;;;;5093711;28;20596;-80
2023/09/17 01:23:14;;;;;;;5.97;5.10;;;;;;;;;;5100407;28;20220;-80
2023/09/17 01:25:47;;;;;;;5.03;4.33;;;;;;;;;;5098069;28;20223;-80
2023/09/17 01:28:16;;;;;;;5.53;4.80;;;;;;;;;;5092709;28;20204;-80
2023/09/17 01:30:45;;;;;;;6.30;4.93;;;;;;;;;;5109317;28;20207;-80
2023/09/17 01:33:12;;;;;;;5.50;5.03;;;;;;;;;;5102974;28;20204;-80
2023/09/17 01:35:50;;;;;;;4.93;4.53;;;;;;;;;;5109413;28;20199;-80
2023/09/17 01:38:19;;;;;;;5.67;5.07;;;;;;;;;;5101184;28;20192;-80
2023/09/17 01:40:48;;;;;;;7.07;5.13;;;;;;;;;;5092640;28;20251;-80
2023/09/17 01:43:18;;;;;;;4.90;4.43;;;;;;;;;;5092687;28;20287;-80
2023/09/17 01:45:45;;;;;;;5.30;4.80;;;;;;;;;;5092820;28;20288;-80
2023/09/17 01:48:12;;;;;;;5.17;4.67;;;;;;;;;;5106198;28;20241;-80
2023/09/17 01:50:38;;;;;;;5.67;4.87;;;;;;;;;;5099541;28;20642;-80
2023/09/17 01:53:05;;;;;;;6.80;4.80;;;;;;;;;;5098476;28;20211;-80
2023/09/17 01:55:33;;;;;;;4.37;4.00;;;;;;;;;;5092666;28;20207;-79
2023/09/17 01:58:00;;;;;;;5.00;4.60;;;;;;;;;;5105806;28;20264;-80
2023/09/17 02:00:28;;;;;;;4.97;4.57;;;;;;;;;;5092615;28;20622;-80
2023/09/17 02:02:55;;;;;;;6.17;4.57;;;;;;;;;;5106747;28;20207;-80
2023/09/17 02:05:24;;;;;;;5.20;4.70;;;;;;;;;;5104167;28;20631;-80
2023/09/17 02:07:52;;;;;;;5.30;4.80;;;;;;;;;;5092226;28;20201;-80
2023/09/17 02:10:20;;;;;;;5.47;4.97;;;;;;;;;;5092352;28;20200;-80
2023/09/17 02:12:47;;;;;;;4.77;4.37;;;;;;;;;;5105469;28;20228;-80
2023/09/17 02:15:14;;;;;;;5.17;4.60;;;;;;;;;;5092379;28;20196;-80
2023/09/17 02:17:43;;;;;;;7.40;4.67;;;;;;;;;;5108388;28;20204;-80
2023/09/17 02:20:11;;;;;;;5.23;4.73;;;;;;;;;;5102145;28;20277;-80
2023/09/17 02:22:38;;;;;;;4.77;4.37;;;;;;;;;;5094353;28;20231;-80
2023/09/17 02:25:05;;;;;;;10.23;5.47;;;;;;;;;;5112286;28;20200;-80
2023/09/17 02:27:33;;;;;;;5.57;4.70;;;;;;;;;;5094630;28;20188;-80
2023/09/17 02:30:00;;;;;;;5.57;5.07;;;;;;;;;;5102164;28;20673;-80
2023/09/17 02:32:26;;;;;;;5.80;5.40;;;;;;;;;;5097855;28;20204;-80
2023/09/17 02:34:54;;;;;;;5.27;4.87;;;;;;;;;;5111773;28;20257;-80
2023/09/17 02:37:21;;;;;;;5.77;5.27;;;;;;;;;;5111437;28;20682;-80
2023/09/17 02:39:48;;;;;;;6.03;5.43;;;;;;;;;;5101269;28;20197;-80
2023/09/17 02:42:15;;;;;;;5.13;4.53;;;;;;;;;;5108477;28;20226;-80
2023/09/17 02:44:42;;;;;;;5.53;5.03;;;;;;;;;;5100718;28;20208;-80
2023/09/17 02:47:09;;;;;;;5.07;4.67;;;;;;;;;;5091169;28;20200;-80
2023/09/17 02:49:36;;;;;;;6.47;5.40;;;;;;;;;;5091181;28;20649;-79
2023/09/17 02:52:06;;;;;;;5.43;4.93;;;;;;;;;;5109141;28;20597;-80
2023/09/17 02:54:33;;;;;;;5.73;5.20;;;;;;;;;;5099691;28;20196;-80
2023/09/17 02:57:00;;;;;;;7.70;5.60;;;;;;;;;;5109840;28;20204;-81
2023/09/17 02:59:27;;;;;;;9.17;5.87;;;;;;;;;;5099057;28;20208;-80
2023/09/17 03:01:54;;;;;;;7.83;5.87;;;;;;;;;;5090480;28;20220;-80
2023/09/17 03:04:21;;;;;;;7.77;6.10;;;;;;;;;;5091059;28;20729;-80
2023/09/17 03:06:48;;;;;;;5.67;5.17;;;;;;;;;;5091143;28;20283;-80
2023/09/17 03:09:18;;;;;;;6.73;5.57;;;;;;;;;;5104509;28;20210;-80
2023/09/17 03:11:45;;;;;;;6.10;5.27;;;;;;;;;;5103726;28;20246;-80
2023/09/17 03:14:12;;;;;;;6.70;5.77;;;;;;;;;;5090661;28;20219;-80
2023/09/17 03:16:39;;;;;;;6.93;5.67;;;;;;;;;;5098412;28;20714;-80
2023/09/17 03:19:06;;;;;;;8.20;6.17;;;;;;;;;;5110063;28;20260;-80
2023/09/17 03:21:34;;;;;;;7.27;5.83;;;;;;;;;;5090977;28;20220;-80
2023/09/17 03:24:00;;;;;;;6.53;5.93;;;;;;;;;;5104709;28;20578;-80
2023/09/17 03:26:29;;;;;;;6.33;5.83;;;;;;;;;;5090622;28;20216;-80
2023/09/17 03:28:55;;;;;;;6.60;6.10;;;;;;;;;;5090730;28;20200;-80
2023/09/17 03:31:23;;;;;;;7.50;6.33;;;;;;;;;;5090615;28;20208;-82
2023/09/17 03:33:50;;;;;;;7.23;6.53;;;;;;;;;;5093785;28;20207;-79
2023/09/17 03:36:17;;;;;;;7.40;6.53;;;;;;;;;;5097908;28;20204;-80
2023/09/17 03:38:43;;;;;;;8.43;6.53;;;;;;;;;;5113879;28;20631;-80
2023/09/17 03:41:10;;;;;;;6.80;6.20;;;;;;;;;;5117545;28;20720;-80
2023/09/17 03:43:38;;;;;;;6.27;5.67;;;;;;;;;;5117092;28;20210;-80
2023/09/17 03:46:05;;;;;;;6.70;6.10;;;;;;;;;;5117857;28;20207;-80
2023/09/17 03:48:32;;;;;;;9.73;6.23;;;;;;;;;;5114722;28;20211;-80
2023/09/17 03:50:59;;;;;;;7.13;6.47;;;;;;;;;;5107185;28;20206;-80
2023/09/17 03:53:27;;;;;;;6.87;6.30;;;;;;;;;;5100325;28;20226;-80
2023/09/17 03:55:54;;;;;;;7.23;6.57;;;;;;;;;;5097229;28;20633;-80
2023/09/17 03:58:21;;;;;;;7.03;6.50;;;;;;;;;;5110945;28;20196;-80
2023/09/17 04:00:50;;;;;;;7.07;6.50;;;;;;;;;;5097507;28;20232;-80
2023/09/17 04:03:19;;;;;;;6.70;6.10;;;;;;;;;;5101402;28;20215;-80
2023/09/17 04:05:46;;;;;;;6.83;6.27;;;;;;;;;;5105000;28;20669;-80
2023/09/17 04:08:13;;;;;;;6.43;5.93;;;;;;;;;;5097375;28;20258;-80
2023/09/17 04:10:40;;;;;;;7.67;6.97;;;;;;;;;;5097011;28;20199;-80
2023/09/17 04:13:06;;;;;;;7.97;6.43;;;;;;;;;;5110220;28;20286;-80
2023/09/17 04:15:35;;;;;;;8.90;6.60;;;;;;;;;;5108161;28;20200;-80
2023/09/17 04:18:04;;;;;;;8.47;6.20;;;;;;;;;;5096968;28;20193;-80
2023/09/17 04:20:32;;;;;;;8.90;8.10;;;;;;;;;;5096824;28;20196;-80
2023/09/17 04:22:59;;;;;;;7.13;6.53;;;;;;;;;;5096964;28;20227;-80
2023/09/17 04:25:26;;;;;;;6.73;6.13;;;;;;;;;;5096771;28;20601;-80
2023/09/17 04:27:53;;;;;;;6.20;5.73;;;;;;;;;;5115774;28;20199;-80
2023/09/17 04:30:20;;;;;;;6.83;6.23;;;;;;;;;;5113106;28;20623;-80
2023/09/17 04:32:49;;;;;;;7.07;6.43;;;;;;;;;;5110782;28;20290;-81
2023/09/17 04:35:18;;;;;;;5.77;5.37;;;;;;;;;;5103208;28;20200;-80
2023/09/17 04:37:46;;;;;;;8.30;5.40;;;;;;;;;;5098200;28;20210;-80
2023/09/17 04:40:13;;;;;;;6.07;5.50;;;;;;;;;;5106170;28;20206;-80
2023/09/17 04:42:43;;;;;;;6.73;6.13;;;;;;;;;;5102975;28;20231;-80
2023/09/17 04:45:10;;;;;;;6.87;6.27;;;;;;;;;;5103282;28;20204;-80
2023/09/17 04:47:38;;;;;;;6.23;5.73;;;;;;;;;;5107001;28;20204;-80
2023/09/17 04:50:07;;;;;;;6.57;6.03;;;;;;;;;;5107649;28;20199;-80
2023/09/17 04:52:36;;;;;;;9.37;6.57;;;;;;;;;;5109246;28;20210;-80
2023/09/17 04:55:03;;;;;;;6.07;5.57;;;;;;;;;;5111682;28;20200;-80
2023/09/17 04:57:29;;;;;;;9.30;6.10;;;;;;;;;;5106778;28;20200;-79
2023/09/17 04:59:56;;;;;;;7.20;6.23;;;;;;;;;;5106999;28;20204;-80
2023/09/17 05:02:23;;;;;;;6.67;6.17;;;;;;;;;;5097484;28;20645;-80
2023/09/17 05:04:50;;;;;;;6.37;5.77;;;;;;;;;;5100986;28;20214;-79
2023/09/17 05:07:16;;;;;;;8.60;6.43;;;;;;;;;;5098224;28;20218;-79
2023/09/17 05:09:44;;;;;;;6.27;5.67;;;;;;;;;;5103431;28;20210;-80
2023/09/17 05:12:11;;;;;;;6.17;5.57;;;;;;;;;;5112746;28;20219;-80
2023/09/17 05:14:38;;;;;;;6.33;5.83;;;;;;;;;;5113321;28;20203;-80
2023/09/17 05:17:05;;;;;;;7.70;6.60;;;;;;;;;;5113399;28;20578;-80
2023/09/17 05:19:32;;;;;;;7.33;6.30;;;;;;;;;;5112382;28;20716;-80
2023/09/17 05:21:59;;;;;;;10.00;6.70;;;;;;;;;;5112436;28;20225;-80
2023/09/17 05:24:26;;;;;;;7.70;7.00;;;;;;;;;;5093164;28;20276;-79
2023/09/17 05:26:54;;;;;;;8.30;7.43;;;;;;;;;;5093168;28;20204;-79
2023/09/17 05:29:21;;;;;;;9.17;7.60;;;;;;;;;;5096609;28;20211;-83
2023/09/17 05:31:48;;;;;;;9.97;7.27;;;;;;;;;;5091453;28;20200;-80
2023/09/17 05:34:15;;;;;;;7.93;6.83;;;;;;;;;;5092617;28;20200;-79
2023/09/17 05:36:42;;;;;;;7.63;7.00;;;;;;;;;;5104811;28;20290;-79
2023/09/17 05:39:09;;;;;;;8.53;6.80;;;;;;;;;;5091624;28;20201;-81
2023/09/17 05:41:37;;;;;;;7.13;6.37;;;;;;;;;;5106084;28;20224;-81
2023/09/17 05:44:05;;;;;;;7.47;6.80;;;;;;;;;;5092382;28;20874;-82
2023/09/17 05:46:32;;;;;;;7.13;6.53;;;;;;;;;;5092598;28;20204;-81
2023/09/17 05:49:00;;;;;;;7.07;6.37;;;;;;;;;;5105882;28;20196;-81
2023/09/17 05:51:27;;;;;;;8.00;7.30;;;;;;;;;;5099140;28;20202;-81
2023/09/17 05:53:54;;;;;;;8.27;7.30;;;;;;;;;;5112565;28;20252;-81
2023/09/17 05:56:20;;;;;;;6.87;6.27;;;;;;;;;;5112553;28;20607;-81
2023/09/17 05:58:47;;;;;;;6.97;6.47;;;;;;;;;;5111973;28;20215;-81
2023/09/17 06:01:16;;;;;;;7.67;6.73;;;;;;;;;;5104130;28;20200;-81
2023/09/17 06:03:44;;;;;;;7.53;6.73;;;;;;;;;;5091828;28;20234;-81
2023/09/17 06:06:11;;;;;;;13.23;6.30;;;;;;;;;;5101413;28;20217;-81
2023/09/17 06:08:37;;;;;;;7.13;6.53;;;;;;;;;;5096149;28;20231;-81
2023/09/17 06:11:04;;;;;;;7.37;6.23;;;;;;;;;;5091546;28;20716;-81
2023/09/17 06:13:31;;;;;;;7.50;6.77;;;;;;;;;;5091743;28;20205;-82
2023/09/17 06:15:58;;;;;;;7.63;6.93;;;;;;;;;;5092172;28;20200;-82
2023/09/17 06:18:28;;;;;;;7.53;6.73;;;;;;;;;;5092093;28;20202;-82
2023/09/17 06:20:56;;;;;;;6.80;6.17;;;;;;;;;;5091852;28;20208;-81
2023/09/17 06:23:23;;;;;;;9.97;6.90;;;;;;;;;;5091735;28;20281;-81
2023/09/17 06:25:50;;;;;;;6.50;6.00;;;;;;;;;;5091604;28;20629;-81
2023/09/17 06:28:16;;;;;;;9.57;6.10;;;;;;;;;;5101981;28;20196;-82
2023/09/17 06:30:43;;;;;;;6.97;6.37;;;;;;;;;;5097642;28;20226;-82
2023/09/17 06:33:10;;;;;;;7.63;6.93;;;;;;;;;;5111834;28;20199;-82
2023/09/17 06:35:38;;;;;;;7.83;7.17;;;;;;;;;;5108441;28;20666;-81
2023/09/17 06:38:05;;;;;;;8.67;7.87;;;;;;;;;;5091355;28;20204;-81
2023/09/17 06:40:32;;;;;;;7.37;6.77;;;;;;;;;;5091537;28;20203;-82
2023/09/17 06:42:59;;;;;;;7.83;7.03;;;;;;;;;;5091091;28;20227;-82
2023/09/17 06:45:25;;;;;;;5.93;5.33;;;;;;;;;;5095767;28;20204;-82
2023/09/17 06:47:52;;;;;;;7.37;6.70;;;;;;;;;;5100804;28;20261;-81
2023/09/17 06:50:19;;;;;;;6.67;6.07;;;;;;;;;;5095965;28;20203;-82
2023/09/17 06:52:47;;;;;;;7.97;7.27;;;;;;;;;;5099656;28;20216;-82
2023/09/17 06:55:14;;;;;;;7.00;6.30;;;;;;;;;;5109936;28;20206;-82
2023/09/17 06:57:41;;;;;;;6.70;6.07;;;;;;;;;;5111308;28;20203;-83
2023/09/17 07:00:09;;;;;;;6.93;6.33;;;;;;;;;;5106026;28;20196;-82
2023/09/17 07:02:36;;;;;;;8.20;6.10;;;;;;;;;;5091039;28;20259;-83
2023/09/17 07:05:03;;;;;;;6.00;5.50;;;;;;;;;;5097253;28;20206;-82
2023/09/17 07:07:30;;;;;;;8.03;5.53;;;;;;;;;;5110860;28;20207;-83
2023/09/17 07:10:00;;;;;;;7.17;5.43;;;;;;;;;;5091081;28;20209;-83
2023/09/17 07:12:27;;;;;;;8.27;6.10;;;;;;;;;;5090785;28;20729;-83
2023/09/17 07:14:54;;;;;;;6.30;5.70;;;;;;;;;;5091232;28;20595;-83
2023/09/17 07:17:23;;;;;;;6.43;5.93;;;;;;;;;;5104910;28;20574;-83
2023/09/17 07:19:50;;;;;;;7.03;5.43;;;;;;;;;;5101340;28;20212;-82
2023/09/17 07:22:17;;;;;;;9.33;6.63;;;;;;;;;;5107800;28;20222;-83
2023/09/17 07:24:43;;;;;;;11.53;6.27;;;;;;;;;;5108537;28;20503;-82
2023/09/17 07:27:12;;;;;;;6.87;5.70;;;;;;;;;;5107808;28;20207;-83
2023/09/17 07:29:38;;;;;;;8.07;5.57;;;;;;;;;;5109327;28;20202;-83
2023/09/17 07:32:05;;;;;;;6.00;5.50;;;;;;;;;;5103837;28;20304;-82
2023/09/17 07:34:33;;;;;;;7.53;5.80;;;;;;;;;;5098518;28;20569;-82
2023/09/17 07:37:00;;;;;;;7.27;5.43;;;;;;;;;;5095381;28;20192;-82
2023/09/17 07:39:27;;;;;;;6.47;5.13;;;;;;;;;;5103520;28;20195;-82
2023/09/17 07:41:54;;;;;;;7.70;6.07;;;;;;;;;;5103431;28;20256;-82
2023/09/17 07:44:23;;;;;;;8.57;5.77;;;;;;;;;;5110697;28;20720;-82
2023/09/17 07:46:49;;;;;;;5.80;5.27;;;;;;;;;;5104116;28;20253;-82
2023/09/17 07:49:17;;;;;;;7.33;5.17;;;;;;;;;;5104590;28;20573;-82
2023/09/17 07:51:44;;;;;;;7.60;5.17;;;;;;;;;;5096528;28;20249;-82
2023/09/17 07:54:11;;;;;;;8.13;5.30;;;;;;;;;;5092657;28;20196;-81
2023/09/17 07:56:38;;;;;;;6.70;5.77;;;;;;;;;;5102395;28;20200;-80
2023/09/17 07:59:05;;;;;;;5.97;5.47;;;;;;;;;;5089997;28;20743;-81
2023/09/17 08:01:35;;;;;;;5.90;5.40;;;;;;;;;;5099092;28;20211;-80
2023/09/17 08:04:02;;;;;;;7.27;5.40;;;;;;;;;;5110453;28;20226;-80
2023/09/17 08:06:29;;;;;;;6.97;5.80;;;;;;;;;;5110777;28;20589;-81
2023/09/17 08:08:56;;;;;;;5.67;5.03;;;;;;;;;;5096412;28;20213;-81
2023/09/17 08:11:28;;;;;;;8.03;5.13;;;;;;;;;;5110579;28;20607;-80
2023/09/17 08:13:56;;;;;;;8.17;5.33;;;;;;;;;;5095442;28;20210;-80
2023/09/17 08:16:23;;;;;;;8.93;5.63;;;;;;;;;;5107800;28;20207;-80
2023/09/17 08:18:52;;;;;;;5.90;5.30;;;;;;;;;;5094913;28;20207;-80
2023/09/17 08:21:18;;;;;;;5.47;4.87;;;;;;;;;;5114226;28;20195;-80
2023/09/17 08:23:46;;;;;;;5.60;5.10;;;;;;;;;;5113893;28;20322;-79
2023/09/17 08:26:13;;;;;;;5.67;4.67;;;;;;;;;;5094579;28;20200;-80
2023/09/17 08:28:41;;;;;;;5.13;4.63;;;;;;;;;;5094346;28;20233;-79
2023/09/17 08:31:07;;;;;;;6.40;5.83;;;;;;;;;;5093542;28;20586;-79
2023/09/17 08:33:36;;;;;;;8.50;4.93;;;;;;;;;;5102262;28;20208;-79
2023/09/17 08:36:06;;;;;;;5.73;4.63;;;;;;;;;;5106320;28;20240;-79
2023/09/17 08:38:33;;;;;;;5.13;4.63;;;;;;;;;;5107413;28;20210;-79
2023/09/17 08:41:00;;;;;;;5.77;5.27;;;;;;;;;;5107031;28;20291;-79
2023/09/17 08:43:27;;;;;;;7.63;4.97;;;;;;;;;;5099831;28;20223;-80
2023/09/17 08:45:54;;;;;;;6.47;5.90;;;;;;;;;;5099253;28;20678;-80
2023/09/17 08:48:22;;;;;;;7.67;5.30;;;;;;;;;;5098735;28;20195;-80
2023/09/17 08:50:51;;;;;;;6.03;4.50;;;;;;;;;;5100596;28;20291;-79
2023/09/17 08:53:23;;;;;;;7.70;5.27;;;;;;;;;;5093091;28;20257;-79
2023/09/17 08:55:54;;;;;;;7.10;5.17;;;;;;;;;;5093478;28;20610;-79
2023/09/17 08:58:25;;;;;;;6.77;5.03;;;;;;;;;;5093746;28;20230;-79
2023/09/17 09:00:54;;;;;;;10.57;4.90;;;;;;;;;;5106423;28;20678;-79
2023/09/17 09:03:24;;;;;;;6.40;4.60;;;;;;;;;;5093608;28;20637;-79
2023/09/17 09:05:55;;;;;;;6.13;5.30;;;;;;;;;;5108499;28;20692;-78
2023/09/17 09:08:24;;;;;;;8.20;5.13;;;;;;;;;;5113131;28;20283;-78
2023/09/17 09:10:51;;;;;;;5.33;4.83;;;;;;;;;;5109894;28;20231;-79
2023/09/17 09:13:18;;;;;;;6.13;5.53;;;;;;;;;;5095505;28;20682;-79
2023/09/17 09:15:45;;;;;;;10.07;6.40;;;;;;;;;;5111386;28;20200;-79
2023/09/17 09:18:12;;;;;;;5.27;4.77;;;;;;;;;;5105909;28;20203;-79
2023/09/17 09:20:39;;;;;;;7.03;5.40;;;;;;;;;;5107374;28;20231;-79
2023/09/17 09:23:06;;;;;;;6.07;5.00;;;;;;;;;;5097631;28;20227;-79
2023/09/17 09:25:35;;;;;;;7.83;4.87;;;;;;;;;;5101525;28;20627;-79
2023/09/17 09:28:02;;;;;;;8.80;5.80;;;;;;;;;;5106369;28;20211;-79
2023/09/17 09:30:29;;;;;;;5.37;4.67;;;;;;;;;;5094557;28;20684;-78
2023/09/17 09:32:57;;;;;;;6.40;4.60;;;;;;;;;;5092139;28;20208;-79
2023/09/17 09:35:24;;;;;;;8.10;4.73;;;;;;;;;;5092791;28;20589;-79
2023/09/17 09:37:53;;;;;;;6.67;4.97;;;;;;;;;;5092220;28;20208;-79
2023/09/17 09:40:21;;;;;;;8.67;5.67;;;;;;;;;;5106260;28;20202;-78
2023/09/17 09:42:49;;;;;;;8.73;4.20;;;;;;;;;;5092233;28;20204;-79
2023/09/17 09:45:16;;;;;;;12.07;5.27;;;;;;;;;;5092159;28;20200;-79
2023/09/17 09:47:48;;;;;;;6.63;4.40;;;;;;;;;;5106124;28;20302;-79
2023/09/17 09:50:21;;;;;;;5.47;4.70;;;;;;;;;;5093025;28;20204;-79
2023/09/17 09:52:49;;;;;;;5.20;4.70;;;;;;;;;;5105631;28;20285;-79
2023/09/17 09:55:15;;;;;;;8.17;4.77;;;;;;;;;;5092144;28;20197;-79
2023/09/17 09:57:43;;;;;;;6.93;4.93;;;;;;;;;;5092135;28;20208;-79
2023/09/17 10:00:15;;;;;;;6.87;5.23;;;;;;;;;;5092193;28;20204;-79
2023/09/17 10:02:43;;;;;;;6.77;4.20;;;;;;;;;;5091909;28;20249;-79
2023/09/17 10:05:12;;;;;;;5.43;4.43;;;;;;;;;;5091873;28;20231;-79
2023/09/17 10:07:39;;;;;;;9.77;5.73;;;;;;;;;;5091378;28;20204;-79
2023/09/17 10:10:12;;;;;;;6.23;5.20;;;;;;;;;;5091930;28;20283;-79
2023/09/17 10:12:39;;;;;;;5.80;5.30;;;;;;;;;;5107207;28;20230;-79
2023/09/17 10:15:07;;;;;;;5.77;4.33;;;;;;;;;;5112324;28;20210;-79
2023/09/17 10:17:37;;;;;;;9.07;4.77;;;;;;;;;;5104206;28;20201;-79
2023/09/17 10:20:06;;;;;;;6.10;4.70;;;;;;;;;;5102270;28;20200;-79
2023/09/17 10:22:34;;;;;;;6.80;4.53;;;;;;;;;;5108200;28;20260;-79
2023/09/17 10:25:02;;;;;;;7.97;5.57;;;;;;;;;;5112132;28;20230;-79
2023/09/17 10:27:32;;;;;;;6.60;5.60;;;;;;;;;;5111648;28;20295;-79
2023/09/17 10:29:59;;;;;;;5.03;4.53;;;;;;;;;;5111932;28;20689;-79
2023/09/17 10:32:28;;;;;;;5.15;4.45;;;;;;;;;;5111710;28;20701;-79
2023/09/17 10:34:57;;;;;;;6.15;3.90;;;;;;;;;;5111933;28;20286;-79
2023/09/17 10:37:24;;;;;;;6.00;4.55;;;;;;;;;;5111756;28;20203;-79
2023/09/17 10:39:51;;;;;;;7.72;4.72;;;;;;;;;;5111502;28;20204;-79
2023/09/17 10:42:18;;;;;;;10.38;5.30;;;;;;;;;;5111275;28;20200;-79
2023/09/17 10:44:45;;;;;;;5.20;4.25;;;;;;;;;;5111009;28;20227;-79
2023/09/17 10:47:12;;;;;;;6.20;4.60;;;;;;;;;;5111423;28;20200;-79
2023/09/17 10:49:39;;;;;;;5.15;4.57;;;;;;;;;;5111645;28;20196;-79
2023/09/17 10:52:08;;;;;;;4.80;4.40;;;;;;;;;;5111574;28;20203;-79
2023/09/17 10:54:36;;;;;;;6.50;5.00;;;;;;;;;;5109114;28;20594;-79
2023/09/17 10:57:06;;;;;;;7.57;4.53;;;;;;;;;;5106449;28;20196;-79
2023/09/17 10:59:33;;;;;;;8.47;4.70;;;;;;;;;;5098499;28;20208;-79
2023/09/17 11:02:00;;;;;;;6.60;5.50;;;;;;;;;;5097916;28;20701;-78
2023/09/17 11:04:28;;;;;;;6.00;5.30;;;;;;;;;;5111296;28;20583;-79
2023/09/17 11:06:55;;;;;;;8.13;5.35;;;;;;;;;;5091022;28;20196;-79
2023/09/17 11:09:23;;;;;;;6.72;5.55;;;;;;;;;;5103269;28;20249;-79
2023/09/17 11:11:50;;;;;;;5.85;5.07;;;;;;;;;;5090702;28;20220;-79
2023/09/17 11:14:17;;;;;;;6.00;5.25;;;;;;;;;;5098806;28;20191;-79
2023/09/17 11:16:43;;;;;;;5.17;4.60;;;;;;;;;;5110901;28;20207;-79
2023/09/17 11:19:11;;;;;;;5.90;4.68;;;;;;;;;;5109145;28;20206;-79
2023/09/17 11:21:40;;;;;;;5.77;5.27;;;;;;;;;;5102164;28;20204;-79
2023/09/17 11:24:10;;;;;;;7.43;5.40;;;;;;;;;;5104936;28;20731;-79
2023/09/17 11:26:39;;;;;;;7.63;5.18;;;;;;;;;;5108033;28;20279;-79
2023/09/17 11:29:07;;;;;;;6.57;4.68;;;;;;;;;;5100357;28;20201;-79
2023/09/17 11:31:36;;;;;;;4.53;4.23;;;;;;;;;;5104596;28;20562;-79
2023/09/17 11:34:08;;;;;;;7.70;5.87;;;;;;;;;;5091283;28;20328;-79
2023/09/17 11:36:35;;;;;;;9.05;5.72;;;;;;;;;;5096552;28;20215;-79
2023/09/17 11:39:05;;;;;;;8.50;5.33;;;;;;;;;;5098011;28;20222;-79
2023/09/17 11:41:35;;;;;;;7.23;5.33;;;;;;;;;;5090481;28;20221;-79
2023/09/17 11:44:04;;;;;;;6.60;6.03;;;;;;;;;;5091102;28;20220;-79
2023/09/17 11:46:33;;;;;;;12.57;7.00;;;;;;;;;;5102882;28;20261;-78
2023/09/17 11:48:59;;;;;;;7.13;5.23;;;;;;;;;;5091942;28;20222;-79
2023/09/17 11:51:27;;;;;;;6.67;5.40;;;;;;;;;;5102303;28;20225;-79
2023/09/17 11:53:56;;;;;;;7.23;5.63;;;;;;;;;;5104332;28;20632;-79
2023/09/17 11:56:23;;;;;;;6.00;5.03;;;;;;;;;;5094474;28;20382;-79
2023/09/17 11:59:06;;;;;;;8.70;5.90;;;;;;;;;;5108364;28;20219;-79
2023/09/17 12:01:37;;;;;;;6.13;5.60;;;;;;;;;;5106587;28;20227;-78
2023/09/17 12:04:08;;;;;;;7.07;5.67;;;;;;;;;;5095766;28;20255;-78
2023/09/17 12:06:38;;;;;;;6.57;5.50;;;;;;;;;;5094035;28;20212;-79
2023/09/17 12:09:11;;;;;;;6.00;5.40;;;;;;;;;;5094425;28;20290;-78
2023/09/17 12:11:38;;;;;;;7.80;5.07;;;;;;;;;;5106382;28;20601;-79
2023/09/17 12:14:07;;;;;;;5.73;5.23;;;;;;;;;;5106506;28;20211;-79
2023/09/17 12:16:35;;;;;;;7.60;5.87;;;;;;;;;;5099020;28;20282;-78
2023/09/17 12:19:02;;;;;;;5.87;5.40;;;;;;;;;;5100988;28;20641;-78
2023/09/17 12:21:32;;;;;;;7.83;5.43;;;;;;;;;;5094483;28;20212;-78
2023/09/17 12:24:05;;;;;;;5.37;4.90;;;;;;;;;;5107534;28;20269;-78
2023/09/17 12:29:25;;;;;;;5.57;4.93;;;;;;;;;;5090379;28;20204;-78
2023/09/17 12:31:51;;;;;;;7.30;6.60;;;;;;;;;;5093363;28;20204;-78
2023/09/17 12:34:18;;;;;;;10.50;6.45;;;;;;;;;;5113523;28;20603;-78
2023/09/17 12:36:45;;;;;;;7.28;5.00;;;;;;;;;;5103135;28;20204;-78
2023/09/17 12:39:12;;;;;;;6.33;5.80;;;;;;;;;;5094002;28;20205;-78
2023/09/17 12:41:38;;;;;;;7.50;6.80;;;;;;;;;;5099136;28;20296;-78
2023/09/17 12:44:06;;;;;;;7.25;6.05;;;;;;;;;;5103435;28;20273;-78
2023/09/17 12:46:35;;;;;;;8.27;6.97;;;;;;;;;;5106899;28;20208;-78
2023/09/17 12:49:03;;;;;;;7.00;6.30;;;;;;;;;;5092877;28;20200;-78
2023/09/17 12:51:30;;;;;;;8.97;6.47;;;;;;;;;;5096203;28;20203;-78
2023/09/17 12:53:57;;;;;;;6.80;6.10;;;;;;;;;;5112938;28;20203;-77
2023/09/17 12:56:25;;;;;;;7.00;6.23;;;;;;;;;;5100200;28;20206;-78
2023/09/17 12:58:52;;;;;;;10.67;5.90;;;;;;;;;;5102520;28;20674;-77
2023/09/17 13:01:19;;;;;;;6.30;5.60;;;;;;;;;;5094672;28;20200;-78
2023/09/17 13:03:55;;;;;;;7.50;6.50;;;;;;;;;;5114064;28;20629;-78
2023/09/17 13:06:23;;;;;;;5.97;5.57;;;;;;;;;;5111926;28;20203;-78
2023/09/17 13:08:50;;;;;;;9.90;6.30;;;;;;;;;;5114007;28;20211;-77
2023/09/17 13:11:17;;;;;;;7.22;6.53;;;;;;;;;;5110948;28;20996;-77
2023/09/17 13:13:46;;;;;;;7.80;7.00;;;;;;;;;;5093040;28;20204;-77
2023/09/17 13:16:13;;;;;;;6.43;5.60;;;;;;;;;;5103944;28;20294;-77
2023/09/17 13:18:40;;;;;;;6.50;5.80;;;;;;;;;;5113345;28;20193;-77
2023/09/17 13:21:08;;;;;;;8.48;6.05;;;;;;;;;;5109083;28;20197;-77
2023/09/17 13:23:37;;;;;;;7.10;6.40;;;;;;;;;;5095427;28;20196;-77
2023/09/17 13:26:05;;;;;;;10.37;6.97;;;;;;;;;;5110865;28;20223;-77
2023/09/17 13:28:32;;;;;;;6.73;6.03;;;;;;;;;;5113156;28;20199;-77
2023/09/17 13:31:01;;;;;;;7.07;6.47;;;;;;;;;;5112953;28;20219;-77
2023/09/17 13:33:27;;;;;;;7.00;5.77;;;;;;;;;;5112657;28;20206;-77
2023/09/17 13:35:55;;;;;;;6.30;5.70;;;;;;;;;;5111959;28;20682;-77
2023/09/17 13:38:23;;;;;;;6.27;5.57;;;;;;;;;;5112921;28;20196;-77
2023/09/17 13:40:51;;;;;;;13.13;6.73;;;;;;;;;;5112645;28;20214;-77
2023/09/17 13:43:18;;;;;;;8.50;5.90;;;;;;;;;;5109478;28;20207;-77
2023/09/17 13:45:52;;;;;;;7.60;6.27;;;;;;;;;;5108295;28;20604;-77
2023/09/17 13:48:19;;;;;;;6.47;5.87;;;;;;;;;;5112041;28;20200;-77
2023/09/17 13:50:46;;;;;;;6.40;5.43;;;;;;;;;;5104696;28;20206;-77
2023/09/17 13:53:13;;;;;;;6.43;5.83;;;;;;;;;;5101225;28;20204;-76
2023/09/17 13:55:42;;;;;;;10.27;5.50;;;;;;;;;;5112946;28;20199;-77
2023/09/17 13:58:09;;;;;;;7.17;5.83;;;;;;;;;;5111322;28;20581;-76
2023/09/17 14:00:35;;;;;;;8.80;5.93;;;;;;;;;;5103875;28;20226;-77
2023/09/17 14:03:03;;;;;;;8.40;5.00;;;;;;;;;;5099555;28;20204;-76
2023/09/17 14:05:31;;;;;;;6.33;5.73;;;;;;;;;;5097553;28;20231;-77
2023/09/17 14:07:58;;;;;;;9.03;5.90;;;;;;;;;;5093884;28;20200;-77
2023/09/17 14:10:24;;;;;;;7.03;5.27;;;;;;;;;;5091014;28;20201;-77
2023/09/17 14:12:53;;;;;;;7.43;5.53;;;;;;;;;;5090698;28;20294;-77
2023/09/17 14:15:21;;;;;;;7.83;5.37;;;;;;;;;;5090896;28;20634;-76
2023/09/17 14:17:47;;;;;;;6.30;5.33;;;;;;;;;;5090859;28;20208;-77
2023/09/17 14:20:14;;;;;;;5.47;4.93;;;;;;;;;;5091086;28;20594;-77
2023/09/17 14:22:41;;;;;;;6.27;5.27;;;;;;;;;;5091683;28;20265;-76
2023/09/17 14:25:09;;;;;;;6.30;5.00;;;;;;;;;;5100745;28;20276;-77
2023/09/17 14:27:36;;;;;;;8.57;4.70;;;;;;;;;;5097877;28;20204;-76
2023/09/17 14:30:06;;;;;;;7.07;4.33;;;;;;;;;;5106765;28;20210;-76
2023/09/17 14:32:35;;;;;;;5.00;4.37;;;;;;;;;;5103176;28;20200;-77
2023/09/17 14:35:03;;;;;;;6.63;5.20;;;;;;;;;;5102814;28;20208;-79
2023/09/17 14:37:30;;;;;;;6.90;5.07;;;;;;;;;;5098008;28;20193;-79
2023/09/17 14:40:01;;;;;;;6.53;4.90;;;;;;;;;;5100378;28;20199;-79
2023/09/17 14:42:28;;;;;;;7.53;6.50;;;;;;;;;;5095583;28;20207;-79
2023/09/17 14:44:55;;;;;;;12.17;6.17;;;;;;;;;;5100787;28;20223;-80
2023/09/17 14:47:23;;;;;;;8.30;6.10;;;;;;;;;;5094955;28;20203;-79
2023/09/17 14:49:50;;;;;;;9.77;6.53;;;;;;;;;;5094909;28;20227;-80